Latest Coastal Weather Observations for Portland Airport

IDS60701

Issued at 1:11 am CST Tuesday 28 April 2015 (issued every 10 minutes, with the page automatically refreshed every 10 minutes)

About coastal observations | Map of coastal stations | Coastal observations for SA | Marine services | Other Formats
Station Details ID: 090171 Name: CASHMORE AIRPORT Lat: -38.31 Lon: 141.47 Height: 80.9 m
Data from the previous 72 hours. | See also: Recent months at Portland Airport
Date/Time
CST
Temp

°C
Wind Pressure Rain
since 9am
mm
Weather Cloud Vis
km
Sea
Height
m
Swell
Dir
 
Speed
knots
Gust
knots
hPa Trend Height
m
Period
s
Dir
28/01:00am 10.8 S 5 10 1028.1 - 1.4 - Partly cloudy 10 - - - -
28/12:30am 10.8 S 5 9 1028.2 - 1.4 - Partly cloudy 10 - - - -
28/12:00am 10.6 S 5 8 1028.1 - 1.4 - Partly cloudy 10 - - - -
 
Date/Time
CST
Temp

°C
Wind Pressure Rain
since 9am
mm
Weather Cloud Vis
km
Sea
Height
m
Swell
Dir
 
Speed
knots
Gust
knots
hPa Trend Height
m
Period
s
Dir
27/11:30pm 10.3 SSE 4 7 1028.2 - 1.4 - Partly cloudy 10 - - - -
27/11:00pm 10.3 SSE 4 6 1028.1 - 1.4 - Partly cloudy 10 - - - -
27/10:30pm 10.4 SSE 4 6 1028.2 - 1.4 - Partly cloudy 10 - - - -
27/10:00pm 11.1 S 5 8 1028.1 - 1.4 - Partly cloudy 10 - - - -
27/09:30pm 11.1 S 5 9 1027.9 - 1.4 - Partly cloudy 10 - - - -
27/09:00pm 10.9 SW 7 9 1027.6 - 1.4 - Partly cloudy 10 - - - -
27/08:30pm 10.3 S 2 3 1027.5 - 1.4 - Cloudy 10 - - - -
27/08:00pm 10.8 SSW 8 13 1027.4 - 1.4 - Partly cloudy 10 - - - -
27/07:30pm 10.2 S 3 5 1027.1 - 1.4 - Partly cloudy 10 - - - -
27/07:00pm 10.9 S 4 7 1027.0 - 1.4 - Partly cloudy 10 - - - -
27/06:30pm 11.9 SSW 7 9 1026.7 - 1.2 - Partly cloudy 10 - - - -
27/06:00pm 11.5 SSW 5 9 1026.4 - 1.2 - Partly cloudy 10 - - - -
27/05:30pm 11.1 S 4 7 1026.1 - 1.2 - Cloudy 10 - - - -
27/05:00pm 11.6 S 6 10 1026.0 - 1.2 - Partly cloudy 10 - - - -
27/04:30pm 11.6 S 5 8 1025.8 - 1.2 - Partly cloudy 10 - - - -
27/04:00pm 11.9 SW 8 11 1025.7 - 1.2 - Partly cloudy 10 - - - -
27/03:30pm 13.0 SSW 8 13 1025.5 - 1.2 - - 10 - - - -
27/03:00pm 12.6 SSW 9 15 1025.4 - 1.2 - Partly cloudy 10 - - - -
27/02:30pm 12.2 SSW 8 12 1025.3 - 1.2 - Mostly cloudy 10 - - - -
27/02:00pm 13.7 SW 8 13 1025.0 - 1.2 - Partly cloudy 10 - - - -
27/01:30pm 13.6 SSW 9 13 1024.9 - 1.2 - Partly cloudy 10 - - - -
27/01:00pm 12.5 SSW 10 17 1024.9 - 1.2 - Partly cloudy 10 - - - -
27/12:30pm 12.8 WSW 10 13 1025.0 - 1.2 - Partly cloudy 10 - - - -
27/12:14pm 12.4 WSW 11 17 1025.1 - 1.2 - Partly cloudy 6 - - - -
27/12:00pm 12.5 SW 9 13 1025.2 - 1.2 - Partly cloudy 10 - - - -
27/11:55am 12.4 SW 9 13 1025.3 - 1.2 - Partly cloudy 10 - - - -
27/11:40am 12.1 SW 10 17 1025.4 - 1.2 - Partly cloudy 6 - - - -
27/11:30am 13.3 SW 9 13 1025.4 - 1.0 - Cloudy 10 - - - -
27/11:00am 12.2 SSW 8 14 1025.6 - 1.0 - Partly cloudy 10 - - - -
27/10:30am 12.3 SW 9 15 1025.6 - 1.0 - Partly cloudy 10 - - - -
27/10:04am 12.6 SW 7 11 1025.5 - 1.0 - Partly cloudy 10 - - - -
27/10:00am 12.1 SW 7 11 1025.5 - 1.0 - Partly cloudy 10 - - - -
27/09:31am 11.5 WSW 10 14 1025.4 - 0.6 - Partly cloudy 6 - - - -
27/09:30am 11.6 WSW 11 15 1025.4 - 0.6 - Partly cloudy 7 - - - -
27/09:00am 11.6 SSW 8 13 1025.2 - 0.0 - Partly cloudy 10 - - - -
27/08:30am 11.6 SSW 8 15 1025.2 - 1.8 - Cloudy 10 - - - -
27/08:00am 11.0 SW 9 11 1024.9 - 1.8 - Partly cloudy 10 - - - -
27/07:30am 10.5 SW 8 11 1024.5 - 1.8 - Partly cloudy 10 - - - -
27/07:00am 10.3 SW 6 8 1024.3 - 1.8 - Partly cloudy 10 - - - -
27/06:46am 10.4 SW 7 9 1024.2 - 1.8 - Partly cloudy 10 - - - -
27/06:30am 10.4 WSW 9 13 1024.0 - 1.6 - Partly cloudy 5 - - - -
27/06:20am 10.5 WSW 12 15 1023.9 - 1.4 - Partly cloudy 6 - - - -
27/06:00am 10.8 SW 7 12 1023.8 - 1.4 - Partly cloudy 10 - - - -
27/05:30am 10.1 SW 7 10 1023.7 - 1.4 - Mostly cloudy 10 - - - -
27/05:00am 10.7 SSW 8 12 1023.8 - 1.4 - Partly cloudy 10 - - - -
27/04:30am 10.2 SW 6 10 1023.4 - 1.4 - Partly cloudy 10 - - - -
27/04:00am 11.0 SW 9 14 1023.2 - 1.2 - Partly cloudy 10 - - - -
27/03:30am 11.0 SW 8 12 1023.1 - 1.2 - Partly cloudy 10 - - - -
27/03:00am 10.9 SW 9 16 1023.0 - 1.2 - Partly cloudy 10 - - - -
27/02:30am 10.7 SW 8 11 1023.2 - 1.2 - Partly cloudy 10 - - - -
27/02:00am 11.0 SW 7 12 1023.1 - 1.2 - Partly cloudy 10 - - - -
27/01:30am 10.5 SW 7 9 1023.0 - 1.2 - Partly cloudy 10 - - - -
27/01:00am 10.6 SW 8 10 1023.1 - 1.2 - Partly cloudy 10 - - - -
27/12:30am 10.4 SW 8 12 1023.1 - 1.2 - Partly cloudy 10 - - - -
27/12:00am 9.5 SW 6 7 1023.2 - 1.2 - Partly cloudy 10 - - - -
 
Date/Time
CST
Temp

°C
Wind Pressure Rain
since 9am
mm
Weather Cloud Vis
km
Sea
Height
m
Swell
Dir
 
Speed
knots
Gust
knots
hPa Trend Height
m
Period
s
Dir
26/11:30pm 10.6 SW 8 13 1023.3 - 1.2 Recent precip. Cloudy 10 - - - -
26/11:00pm 10.2 SW 6 9 1023.3 - 1.2 - Partly cloudy 10 - - - -
26/10:30pm 10.1 WSW 7 9 1023.3 - 1.0 - Partly cloudy 10 - - - -
26/10:00pm 10.4 SW 7 10 1023.4 - 1.0 - Partly cloudy 10 - - - -
26/09:30pm 10.8 WSW 7 9 1023.4 - 0.8 - Partly cloudy 10 - - - -
26/09:00pm 11.1 SW 12 17 1023.5 - 0.6 - Partly cloudy 9 - - - -
26/08:30pm 10.6 SW 8 10 1023.3 - 0.4 - Mostly clear 10 - - - -
26/08:00pm 10.3 SW 8 11 1023.1 - 0.4 - Partly cloudy 10 - - - -
26/07:30pm 10.4 WSW 9 12 1023.0 - 0.4 - Partly cloudy 10 - - - -
26/07:00pm 10.9 SW 9 11 1023.0 - 0.4 - Partly cloudy 10 - - - -
26/06:30pm 10.5 SW 7 10 1022.8 - 0.4 - Partly cloudy 10 - - - -
26/06:23pm 10.7 SW 8 13 1022.8 - 0.4 - Partly cloudy 10 - - - -
26/06:10pm 11.0 SW 12 19 1022.8 - 0.4 - Partly cloudy 6 - - - -
26/06:00pm 11.4 SW 11 21 1022.8 - 0.2 - Partly cloudy 10 - - - -
26/05:30pm 11.4 SW 6 8 1022.4 - 0.2 Recent precip. Cloudy 10 - - - -
26/05:00pm 12.4 SW 9 12 1022.2 - 0.0 - Partly cloudy 10 - - - -
26/04:30pm 12.6 WSW 10 16 1022.1 - 0.0 - Cloudy 10 - - - -
26/04:00pm 12.8 WSW 9 13 1022.0 - 0.0 - Cloudy 10 - - - -
26/03:30pm 12.7 WSW 13 19 1021.9 - 0.0 - Partly cloudy 10 - - - -
26/03:00pm 13.2 SW 11 15 1021.7 - 0.0 - Partly cloudy 10 - - - -
26/02:30pm 13.0 SW 7 11 1021.7 - 0.0 - Cloudy 10 - - - -
26/02:00pm 12.2 WSW 14 21 1021.8 - 0.0 - Partly cloudy 10 - - - -
26/01:30pm 12.3 SW 9 15 1021.7 - 0.0 - Partly cloudy 10 - - - -
26/01:00pm 12.8 SW 11 15 1021.6 - 0.0 - Cloudy 10 - - - -
26/12:30pm 14.1 SW 14 21 1021.3 - 0.0 - Cloudy 10 - - - -
26/12:00pm 12.9 SW 10 16 1021.6 - 0.0 - Partly cloudy 10 - - - -
26/11:30am 12.8 WSW 12 18 1021.8 - 0.0 - Cloudy 10 - - - -
26/11:00am 12.2 SW 7 11 1022.0 - 0.0 - Cloudy 10 - - - -
26/10:30am 12.0 SW 10 15 1022.1 - 0.0 - Cloudy 10 - - - -
26/10:00am 12.0 SSW 9 15 1022.0 - 0.0 - Cloudy 10 - - - -
26/09:30am 11.8 SW 10 16 1021.9 - 0.0 - Cloudy 10 - - - -
26/09:00am 11.5 SW 8 11 1021.8 - 0.0 - Partly cloudy 10 - - - -
26/08:30am 11.2 SW 9 14 1021.6 - 9.8 - Cloudy 10 - - - -
26/08:00am 11.0 SSW 8 14 1021.4 - 9.8 - Cloudy 10 - - - -
26/07:32am 10.2 SW 7 12 1021.0 - 9.8 - Partly cloudy 10 - - - -
26/07:30am 10.2 SW 7 12 1021.0 - 9.8 - Partly cloudy 10 - - - -
26/07:00am 10.2 SW 7 11 1020.6 - 9.4 - Partly cloudy 10 - - - -
26/06:59am 10.2 SW 7 9 1020.6 - 9.4 - Partly cloudy 10 - - - -
26/06:49am 10.3 SW 8 15 1020.4 - 9.2 - Partly cloudy 6 - - - -
26/06:42am 10.4 SW 8 13 1020.4 - 9.2 - Partly cloudy 5 - - - -
26/06:32am 10.4 SW 9 15 1020.3 - 8.8 - Partly cloudy 6 - - - -
26/06:30am 10.5 SW 8 15 1020.2 - 8.8 - Partly cloudy 6 - - - -
26/06:27am 10.7 SW 7 10 1020.1 - 8.6 - Partly cloudy 6 - - - -
26/06:00am 10.6 SSW 6 10 1019.8 - 8.2 - Partly cloudy 10 - - - -
26/05:30am 10.3 SW 7 11 1019.7 - 8.2 - Cloudy 10 - - - -
26/05:00am 10.2 SW 7 11 1019.7 - 8.2 - Partly cloudy 10 - - - -
26/04:30am 10.3 SW 7 10 1019.5 - 8.2 - Partly cloudy 10 - - - -
26/04:18am 10.1 SW 7 10 1019.4 - 8.2 - Partly cloudy 10 - - - -
26/04:16am 10.1 SSW 7 11 1019.4 - 8.2 - Partly cloudy 10 - - - -
26/04:04am 10.6 SSW 8 12 1019.4 - 8.2 - Partly cloudy 5 - - - -
26/04:00am 10.7 SSW 8 12 1019.4 - 8.2 - Partly cloudy 4 - - - -
26/03:55am 10.7 SSW 7 12 1019.4 - 7.6 - Partly cloudy 6 - - - -
26/03:30am 10.0 SW 7 12 1019.1 - 7.0 - Partly cloudy 10 - - - -
26/03:15am 10.2 SSW 4 7 1019.0 - 7.0 - Partly cloudy 10 - - - -
26/03:00am 10.5 S 6 10 1019.1 - 6.8 - Partly cloudy 6 - - - -
26/02:30am 11.1 SSW 8 13 1019.0 - 6.8 - Mostly cloudy 10 - - - -
26/02:00am 11.0 SW 10 16 1019.0 - 6.8 - Partly cloudy 10 - - - -
26/01:30am 11.2 SSW 7 11 1018.7 - 6.8 - Partly cloudy 10 - - - -
26/01:00am 11.0 SSW 6 13 1018.7 - 6.8 - Cloudy 10 - - - -
26/12:30am 11.4 S 9 15 1018.7 - 6.8 - Partly cloudy 10 - - - -
26/12:00am 11.5 SSW 8 12 1018.5 - 6.8 - Partly cloudy 10 - - - -
 
Date/Time
CST
Temp

°C
Wind Pressure Rain
since 9am
mm
Weather Cloud Vis
km
Sea
Height
m
Swell
Dir
 
Speed
knots
Gust
knots
hPa Trend Height
m
Period
s
Dir
25/11:30pm 11.4 SSW 7 11 1018.4 - 6.8 - Cloudy 10 - - - -
25/11:00pm 11.5 S 8 13 1018.5 - 6.8 - Partly cloudy 10 - - - -
25/10:30pm 10.9 SSW 7 11 1018.4 - 6.8 - Partly cloudy 10 - - - -
25/10:00pm 10.5 SSE 7 13 1018.5 - 6.8 - Partly cloudy 10 - - - -
25/09:30pm 11.2 SSE 6 9 1018.4 - 6.6 - Partly cloudy 10 - - - -
25/09:00pm 10.7 SSW 7 12 1018.1 - 6.6 - Partly cloudy 10 - - - -
25/08:30pm 11.4 S 7 12 1017.9 - 6.6 - Mostly cloudy 10 - - - -
25/08:00pm 11.5 S 9 14 1017.6 - 6.6 - Partly cloudy 10 - - - -
25/07:30pm 11.6 S 8 17 1017.4 - 6.6 - Partly cloudy 10 - - - -
25/07:00pm 12.0 S 9 16 1016.9 - 6.6 - Cloudy 10 - - - -
25/06:30pm 12.0 SSW 10 15 1016.7 - 6.6 - Cloudy 10 - - - -
25/06:00pm 12.0 S 8 13 1016.2 - 6.6 - Cloudy 10 - - - -
25/05:30pm 12.2 S 8 13 1015.6 - 6.6 - Cloudy 10 - - - -
25/05:00pm 12.3 S 9 14 1015.1 - 6.6 - Partly cloudy 10 - - - -
25/04:30pm 12.5 S 10 15 1014.7 - 6.6 - Partly cloudy 10 - - - -
25/04:00pm 12.3 S 9 13 1014.4 - 6.6 - Partly cloudy 10 - - - -
25/03:39pm 12.0 S 10 17 1014.2 - 6.6 - Partly cloudy 10 - - - -
25/03:31pm 11.9 S 11 17 1014.1 - 6.6 - Partly cloudy 10 - - - -
25/03:30pm 11.9 S 12 17 1014.1 - 6.6 - Partly cloudy 10 - - - -
25/03:00pm 12.4 SSE 10 18 1013.6 - 6.2 - Partly cloudy 5 - - - -
25/02:58pm 12.5 SSE 10 18 1013.6 - 6.2 - Partly cloudy 5 - - - -
25/02:50pm 12.4 SSE 13 19 1013.5 - 5.8 - Partly cloudy 6 - - - -
25/02:30pm 13.8 SSE 11 17 1013.1 - 5.4 - Cloudy 10 - - - -
25/02:09pm 13.8 SSE 11 18 1012.8 - 5.4 - Partly cloudy 10 - - - -
25/02:00pm 13.5 SSE 11 18 1012.7 - 5.4 - Partly cloudy 10 - - - -
25/01:30pm 13.2 SSE 10 16 1012.4 - 5.4 - Partly cloudy 10 - - - -
25/01:29pm 13.1 SSE 10 16 1012.4 - 5.4 - Partly cloudy 10 - - - -
25/01:13pm 13.5 SSE 10 17 1012.3 - 5.4 - Partly cloudy 10 - - - -
25/01:03pm 13.3 SSE 11 22 1012.3 - 5.4 - Partly cloudy 6 - - - -
25/01:00pm 13.3 SSE 12 22 1012.2 - 5.4 - Partly cloudy 8 - - - -
25/12:30pm 14.4 SSE 11 16 1011.9 - 5.0 - Partly cloudy 10 - - - -
25/12:00pm 14.3 SSE 11 16 1011.8 - 5.0 - Partly cloudy 10 - - - -
25/11:30am 13.1 SE 11 17 1011.6 - 5.0 Recent precip. Cloudy 10 - - - -
25/11:14am 12.7 SSE 11 15 1011.6 - 5.0 - Partly cloudy 10 - - - -
25/11:07am 12.3 SSE 11 19 1011.5 - 5.0 - Partly cloudy 9 - - - -
25/11:00am 12.3 SSE 11 18 1011.5 - 5.0 - Partly cloudy 5 - - - -
25/10:38am 12.5 SE 11 18 1011.2 - 3.8 - Partly cloudy 4 - - - -
25/10:30am 12.4 SSE 11 18 1011.2 - 3.8 - Partly cloudy 3 - - - -
25/10:09am 12.8 SSE 9 13 1010.9 - 1.0 - Partly cloudy 6 - - - -
25/10:00am 13.1 SSE 6 10 1010.7 - 0.4 - Partly cloudy 10 - - - -
25/09:57am 13.0 SSE 6 10 1010.7 - 0.2 - Partly cloudy 10 - - - -
25/09:30am 12.9 S 9 14 1010.4 - 0.2 - Partly cloudy 10 - - - -
25/09:21am 13.3 S 7 13 1010.3 - 0.2 - Partly cloudy 10 - - - -
25/09:17am 13.4 S 6 9 1010.2 - 0.2 - Partly cloudy 10 - - - -
25/09:06am 13.3 SSW 6 9 1010.2 - 0.0 - Partly cloudy 10 - - - -
25/09:00am 13.2 SSW 5 9 1010.1 - 0.0 - Partly cloudy 10 - - - -
25/08:57am 13.2 SSW 4 8 1010.1 - 0.0 - Partly cloudy 10 - - - -
25/08:37am 13.1 SSW 6 9 1010.0 - 0.0 - Partly cloudy 10 - - - -
25/08:30am 13.0 SSW 5 9 1009.8 - 11.4 - Cloudy 10 - - - -
25/08:10am 12.7 SW 4 5 1009.6 - 11.4 - Partly cloudy 10 - - - -
25/08:00am 12.4 SW 5 7 1009.5 - 11.4 - Partly cloudy 10 - - - -
25/07:51am 12.3 SW 5 7 1009.4 - 11.4 - Partly cloudy 10 - - - -
25/07:30am 11.9 SW 4 6 1009.1 - 11.4 - Partly cloudy 10 - - - -
25/07:00am 10.3 SW 2 5 1008.8 - 11.4 - Partly cloudy 10 - - - -
25/06:30am 9.7 SW 4 6 1008.3 - 11.4 - Partly cloudy 10 - - - -
25/06:02am 9.8 W 5 5 1008.0 - 11.4 - Partly cloudy 7 - - - -
25/06:00am 9.7 W 5 6 1008.0 - 11.4 - Partly cloudy 7 - - - -
25/05:39am 9.7 W 8 9 1007.6 - 11.4 - Partly cloudy 6 - - - -
25/05:30am 9.5 W 8 9 1007.6 - 11.4 - Cloudy 9 - - - -
25/05:00am 9.4 WNW 5 7 1007.6 - 11.4 - Partly cloudy 10 - - - -
25/04:30am 9.7 WNW 4 5 1007.4 - 11.4 - Partly cloudy 10 - - - -
25/04:00am 9.4 WNW 5 6 1007.1 - 11.4 - Partly cloudy 10 - - - -
25/03:30am 9.0 NNW 3 4 1007.0 - 11.4 - Cloudy 10 - - - -
25/03:00am 8.9 NNW 4 5 1006.9 - 11.4 - Cloudy 10 - - - -
25/02:30am 8.9 NNW 5 5 1006.7 - 11.4 - Cloudy 10 - - - -
25/02:00am 8.9 NNW 4 5 1006.7 - 11.4 - Partly cloudy 10 - - - -
25/01:30am 8.9 N 5 6 1006.6 - 11.4 - Partly cloudy 10 - - - -
25/01:00am 9.3 N 4 5 1006.6 - 11.4 - Partly cloudy 10 - - - -

Other Formats:

Comma delimited format used in spreadsheet applications
http://www.bom.gov.au/fwo/IDS60701/IDS60701.94828.axf

JavaScript Object Notation format (JSON) in row-major order
http://www.bom.gov.au/fwo/IDS60701/IDS60701.94828.json